createdAt,value
2022-12-25T00:02:47.433Z,7.30
2022-12-25T00:06:50.358Z,7.50
2022-12-25T00:11:06.919Z,7.40
2022-12-25T00:15:09.181Z,7.50
2022-12-25T00:19:10.894Z,7.40
2022-12-25T00:23:12.654Z,7.40
2022-12-25T00:27:14.467Z,7.40
2022-12-25T00:31:18.040Z,7.50
2022-12-25T00:35:19.837Z,7.50
2022-12-25T00:39:21.693Z,7.40
2022-12-25T00:43:24.243Z,7.50
2022-12-25T00:47:26.051Z,7.40
2022-12-25T00:51:27.951Z,7.30
2022-12-25T00:55:31.100Z,7.40
2022-12-25T00:59:34.465Z,7.40
2022-12-25T01:03:36.246Z,7.30
2022-12-25T01:07:38.138Z,7.30
2022-12-25T01:11:40.179Z,7.40
2022-12-25T01:15:41.963Z,7.40
2022-12-25T01:19:43.716Z,7.40
2022-12-25T01:23:45.507Z,7.60
2022-12-25T01:27:47.320Z,7.50
2022-12-25T01:31:49.360Z,7.50
2022-12-25T01:35:52.438Z,7.60
2022-12-25T01:39:54.278Z,7.50
2022-12-25T01:44:05.081Z,7.50
2022-12-25T01:48:11.771Z,7.50
2022-12-25T01:52:24.073Z,7.60
2022-12-25T01:56:28.216Z,7.60
2022-12-25T02:00:30.115Z,7.60
2022-12-25T02:04:41.371Z,7.50
2022-12-25T02:08:43.497Z,7.40
2022-12-25T02:12:47.087Z,7.50
2022-12-25T02:16:57.652Z,7.50
2022-12-25T02:21:12.681Z,7.40
2022-12-25T02:25:45.243Z,7.40
2022-12-25T02:29:49.510Z,7.40
2022-12-25T02:34:11.690Z,7.30
2022-12-25T02:38:20.365Z,7.30
2022-12-25T02:42:53.809Z,7.40
2022-12-25T02:47:14.659Z,7.40
2022-12-25T02:51:38.114Z,7.40
2022-12-25T02:56:00.982Z,7.40
2022-12-25T03:00:22.609Z,7.70
2022-12-25T03:04:45.271Z,7.50
2022-12-25T03:08:51.569Z,7.40
2022-12-25T03:13:05.993Z,7.40
2022-12-25T03:17:09.244Z,7.30
2022-12-25T03:21:29.793Z,7.40
2022-12-25T03:25:50.423Z,7.30
2022-12-25T03:30:10.729Z,7.40
2022-12-25T03:34:41.666Z,7.30
2022-12-25T03:39:26.602Z,7.40
2022-12-25T03:44:25.301Z,7.40
2022-12-25T03:48:49.112Z,7.40
2022-12-25T03:53:13.307Z,7.30
2022-12-25T03:57:33.481Z,7.40
2022-12-25T04:01:53.896Z,7.40
2022-12-25T04:06:14.562Z,7.50
2022-12-25T04:10:34.956Z,7.50
2022-12-25T04:14:55.443Z,7.40
2022-12-25T04:19:16.011Z,7.50
2022-12-25T04:23:36.536Z,7.40
2022-12-25T04:27:56.894Z,7.50
2022-12-25T04:32:17.457Z,7.60
2022-12-25T04:36:19.878Z,7.50
2022-12-25T04:40:21.604Z,7.50
2022-12-25T04:44:23.357Z,7.50
2022-12-25T04:48:26.877Z,7.50
2022-12-25T04:52:28.861Z,7.40
2022-12-25T04:56:30.647Z,7.30
2022-12-25T05:00:32.534Z,7.30
2022-12-25T05:04:34.499Z,7.30
2022-12-25T05:08:36.923Z,7.30
2022-12-25T05:12:38.689Z,7.20
2022-12-25T05:16:40.459Z,7.30
2022-12-25T05:20:42.407Z,7.30
2022-12-25T05:24:44.145Z,7.40
2022-12-25T05:28:46.790Z,7.40
2022-12-25T05:32:48.949Z,7.50
2022-12-25T05:36:50.687Z,7.50
2022-12-25T05:40:52.559Z,7.50
2022-12-25T05:44:54.324Z,7.50
2022-12-25T05:48:56.109Z,7.40
2022-12-25T05:53:01.506Z,7.30
2022-12-25T05:57:07.780Z,7.30
2022-12-25T06:01:22.567Z,7.30
2022-12-25T06:05:24.858Z,7.40
2022-12-25T06:09:26.718Z,7.40
2022-12-25T06:13:28.475Z,7.50
2022-12-25T06:17:30.219Z,7.50
2022-12-25T06:21:32.115Z,7.60
2022-12-25T06:25:33.874Z,7.40
2022-12-25T06:29:35.713Z,7.50
2022-12-25T06:33:37.619Z,7.60
2022-12-25T06:37:39.410Z,7.50
2022-12-25T06:41:41.161Z,7.50
2022-12-25T06:45:42.956Z,7.60
2022-12-25T06:49:44.823Z,7.60
2022-12-25T06:53:47.923Z,7.60
2022-12-25T06:57:49.751Z,7.70
2022-12-25T07:01:55.550Z,7.50
2022-12-25T07:05:57.501Z,7.50
2022-12-25T07:09:59.272Z,7.00
2022-12-25T07:14:01.053Z,6.90
2022-12-25T07:18:02.787Z,7.10
2022-12-25T07:22:04.699Z,7.30
2022-12-25T07:26:07.139Z,7.50
2022-12-25T07:30:09.527Z,7.70
2022-12-25T07:34:11.337Z,7.60
2022-12-25T07:38:13.153Z,7.70
2022-12-25T07:42:15.008Z,7.60
2022-12-25T07:46:18.120Z,7.50
2022-12-25T07:50:20.141Z,7.50
2022-12-25T07:54:22.008Z,7.50
2022-12-25T07:58:23.932Z,7.60
2022-12-25T08:02:28.842Z,7.60
2022-12-25T08:06:33.373Z,7.50
2022-12-25T08:10:35.240Z,7.60
2022-12-25T08:14:36.989Z,7.60
2022-12-25T08:18:39.806Z,7.60
2022-12-25T08:22:41.626Z,7.50
2022-12-25T08:26:43.392Z,7.50
2022-12-25T08:30:45.289Z,7.40
2022-12-25T08:34:47.188Z,7.40
2022-12-25T08:38:49.173Z,7.40
2022-12-25T08:42:50.984Z,7.50
2022-12-25T08:46:53.334Z,7.50
2022-12-25T08:50:55.162Z,7.60
2022-12-25T08:54:56.995Z,7.40
2022-12-25T08:58:58.820Z,7.50
2022-12-25T09:03:00.866Z,7.50
2022-12-25T09:07:02.769Z,7.70
2022-12-25T09:11:13.144Z,7.40
2022-12-25T09:15:15.485Z,7.60
2022-12-25T09:19:17.376Z,7.70
2022-12-25T09:23:19.172Z,7.90
2022-12-25T09:27:21.001Z,8.00
2022-12-25T09:31:23.278Z,8.10
2022-12-25T09:35:25.130Z,8.10
2022-12-25T09:39:26.961Z,7.90
2022-12-25T09:43:32.732Z,8.00
2022-12-25T09:47:38.262Z,8.00
2022-12-25T09:51:44.209Z,8.20
2022-12-25T09:56:00.518Z,8.30
2022-12-25T10:00:02.348Z,8.20
2022-12-25T10:04:12.076Z,8.20
2022-12-25T10:08:47.257Z,8.30
2022-12-25T10:13:07.904Z,8.10
2022-12-25T10:17:44.900Z,8.20
2022-12-25T10:21:48.084Z,8.30
2022-12-25T10:25:51.638Z,8.20
2022-12-25T10:29:54.769Z,8.10
2022-12-25T10:33:56.681Z,8.20
2022-12-25T10:38:14.726Z,8.50
2022-12-25T10:42:42.212Z,8.70
2022-12-25T10:46:49.957Z,8.30
2022-12-25T10:50:52.301Z,8.40
2022-12-25T10:54:55.229Z,8.50
2022-12-25T10:59:11.373Z,8.70
2022-12-25T11:03:23.354Z,8.80
2022-12-25T11:07:26.562Z,9.00
2022-12-25T11:11:29.767Z,9.00
2022-12-25T11:15:31.719Z,9.00
2022-12-25T11:19:33.601Z,8.80
2022-12-25T11:23:35.374Z,8.80
2022-12-25T11:27:37.132Z,8.80
2022-12-25T11:31:43.563Z,8.80
2022-12-25T11:35:50.561Z,9.00
2022-12-25T11:39:52.340Z,8.90
2022-12-25T11:43:59.355Z,9.00
2022-12-25T11:48:13.133Z,9.20
2022-12-25T11:52:17.099Z,9.30
2022-12-25T11:56:23.808Z,9.40
2022-12-25T12:00:25.768Z,9.60
2022-12-25T12:04:42.957Z,9.70
2022-12-25T12:08:48.470Z,9.60
2022-12-25T12:13:24.024Z,9.50
2022-12-25T12:17:26.332Z,9.60
2022-12-25T12:21:30.294Z,9.50
2022-12-25T12:25:37.929Z,9.70
2022-12-25T12:29:50.577Z,9.30
2022-12-25T12:33:56.525Z,9.50
2022-12-25T12:38:03.445Z,9.70
2022-12-25T12:42:18.715Z,9.90
2022-12-25T12:46:30.696Z,9.90
2022-12-25T12:50:39.849Z,9.90
2022-12-25T12:55:01.363Z,9.60
2022-12-25T12:59:03.198Z,9.70
2022-12-25T13:03:31.628Z,10.00
2022-12-25T13:07:43.969Z,9.70
2022-12-25T13:11:46.125Z,9.40
2022-12-25T13:15:50.246Z,9.50
2022-12-25T13:19:58.180Z,9.90
2022-12-25T13:24:08.790Z,10.00
2022-12-25T13:28:14.681Z,10.00
2022-12-25T13:32:32.581Z,9.80
2022-12-25T13:36:40.280Z,9.70
2022-12-25T13:41:11.919Z,9.80
2022-12-25T13:45:13.760Z,9.80
2022-12-25T13:49:19.500Z,9.90
2022-12-25T13:53:21.364Z,9.90
2022-12-25T13:57:30.190Z,9.90
2022-12-25T14:01:32.476Z,10.00
2022-12-25T14:05:42.899Z,10.10
2022-12-25T14:09:47.001Z,10.10
2022-12-25T14:13:52.290Z,10.10
2022-12-25T14:17:54.342Z,10.10
2022-12-25T14:22:07.532Z,10.10
2022-12-25T14:26:29.353Z,10.20
2022-12-25T14:30:31.332Z,10.20
2022-12-25T14:34:33.893Z,10.20
2022-12-25T14:38:35.753Z,10.20
2022-12-25T14:42:37.641Z,10.30
2022-12-25T14:46:39.653Z,10.10
2022-12-25T14:50:50.985Z,10.10
2022-12-25T14:55:20.201Z,10.10
2022-12-25T14:59:26.143Z,10.10
2022-12-25T15:03:31.119Z,10.10
2022-12-25T15:07:33.265Z,10.10
2022-12-25T15:11:35.187Z,10.10
2022-12-25T15:15:37.265Z,10.00
2022-12-25T15:19:39.274Z,10.10
2022-12-25T15:23:41.320Z,9.80
2022-12-25T15:27:43.359Z,9.70
2022-12-25T15:31:45.300Z,9.50
2022-12-25T15:35:47.247Z,9.20
2022-12-25T15:39:49.137Z,9.20
2022-12-25T15:43:51.192Z,9.10
2022-12-25T15:47:53.330Z,9.00
2022-12-25T15:51:55.232Z,9.00
2022-12-25T15:55:57.371Z,9.00
2022-12-25T15:59:59.450Z,8.90
2022-12-25T16:04:01.387Z,8.90
2022-12-25T16:08:03.482Z,8.80
2022-12-25T16:12:05.606Z,8.70
2022-12-25T16:16:07.879Z,8.70
2022-12-25T16:20:13.303Z,8.50
2022-12-25T16:24:15.357Z,8.40
2022-12-25T16:28:17.334Z,8.40
2022-12-25T16:32:19.219Z,8.30
2022-12-25T16:36:26.746Z,8.20
2022-12-25T16:40:29.084Z,8.20
2022-12-25T16:44:31.068Z,8.20
2022-12-25T16:48:32.908Z,8.20
2022-12-25T16:52:35.837Z,8.20
2022-12-25T16:56:38.484Z,8.10
2022-12-25T17:00:44.246Z,8.10
2022-12-25T17:04:51.001Z,8.00
2022-12-25T17:08:58.458Z,7.90
2022-12-25T17:13:00.439Z,7.80
2022-12-25T17:17:03.453Z,7.80
2022-12-25T17:21:05.530Z,7.80
2022-12-25T17:25:07.741Z,7.70
2022-12-25T17:29:11.211Z,7.60
2022-12-25T17:33:13.141Z,7.50
2022-12-25T17:37:15.076Z,7.50
2022-12-25T17:41:18.440Z,7.60
2022-12-25T17:45:20.484Z,7.60
2022-12-25T17:49:22.839Z,7.50
2022-12-25T17:53:24.738Z,7.30
2022-12-25T17:57:26.699Z,7.20
2022-12-25T18:01:30.545Z,7.40
2022-12-25T18:05:36.167Z,7.40
2022-12-25T18:09:38.109Z,7.40
2022-12-25T18:13:42.088Z,7.40
2022-12-25T18:17:43.920Z,7.40
2022-12-25T18:21:45.855Z,7.30
2022-12-25T18:25:48.096Z,7.30
2022-12-25T18:29:49.978Z,7.30
2022-12-25T18:33:52.637Z,7.30
2022-12-25T18:37:54.617Z,7.30
2022-12-25T18:42:14.999Z,7.30
2022-12-25T18:46:18.172Z,7.50
2022-12-25T18:50:20.312Z,7.30
2022-12-25T18:54:22.622Z,7.30
2022-12-25T18:58:26.149Z,7.20
2022-12-25T19:02:29.180Z,7.20
2022-12-25T19:06:33.217Z,7.20
2022-12-25T19:10:35.585Z,7.30
2022-12-25T19:14:47.462Z,7.20
2022-12-25T19:18:50.225Z,7.30
2022-12-25T19:22:52.147Z,7.40
2022-12-25T19:26:54.164Z,7.30
2022-12-25T19:30:59.617Z,7.20
2022-12-25T19:35:04.428Z,7.20
2022-12-25T19:39:08.506Z,7.40
2022-12-25T19:43:10.434Z,7.10
2022-12-25T19:47:12.451Z,7.00
2022-12-25T19:51:23.328Z,7.10
2022-12-25T19:55:25.238Z,7.30
2022-12-25T19:59:27.110Z,7.40
2022-12-25T20:03:29.183Z,7.40
2022-12-25T20:07:31.230Z,7.00
2022-12-25T20:11:34.490Z,6.90
2022-12-25T20:15:36.364Z,6.70
2022-12-25T20:19:38.412Z,6.80
2022-12-25T20:23:41.302Z,6.80
2022-12-25T20:27:43.319Z,6.90
2022-12-25T20:31:45.348Z,6.50
2022-12-25T20:35:48.248Z,6.40
2022-12-25T20:39:50.132Z,6.30
2022-12-25T20:43:52.556Z,6.50
2022-12-25T20:47:54.574Z,6.10
2022-12-25T20:52:01.365Z,6.10
2022-12-25T20:56:09.707Z,6.10
2022-12-25T21:00:12.532Z,6.10
2022-12-25T21:04:16.533Z,5.90
2022-12-25T21:08:20.634Z,6.30
2022-12-25T21:12:22.630Z,6.80
2022-12-25T21:16:24.841Z,6.70
2022-12-25T21:20:26.861Z,6.60
2022-12-25T21:24:28.870Z,6.50
2022-12-25T21:28:32.311Z,6.70
2022-12-25T21:32:52.656Z,6.70
2022-12-25T21:36:54.484Z,6.80
2022-12-25T21:41:01.557Z,6.60
2022-12-25T21:45:03.615Z,6.40
2022-12-25T21:49:05.620Z,6.30
2022-12-25T21:53:08.346Z,6.50
2022-12-25T21:57:10.252Z,6.50
2022-12-25T22:01:14.517Z,6.60
2022-12-25T22:05:34.986Z,6.40
2022-12-25T22:09:37.416Z,6.20
2022-12-25T22:13:57.839Z,6.30
2022-12-25T22:18:17.981Z,6.30
2022-12-25T22:22:28.463Z,6.00
2022-12-25T22:26:30.401Z,5.60
2022-12-25T22:30:32.414Z,5.90
2022-12-25T22:34:36.954Z,5.90
2022-12-25T22:38:42.433Z,6.00
2022-12-25T22:42:44.471Z,5.70
2022-12-25T22:46:46.508Z,5.90
2022-12-25T22:50:48.521Z,6.20
2022-12-25T22:54:50.644Z,6.40
2022-12-25T22:58:52.626Z,6.40
2022-12-25T23:02:54.647Z,6.50
2022-12-25T23:06:56.800Z,6.80
2022-12-25T23:11:03.580Z,6.80
2022-12-25T23:15:06.119Z,7.20
2022-12-25T23:19:26.972Z,7.20
2022-12-25T23:23:47.273Z,7.10
2022-12-25T23:27:49.182Z,7.20
2022-12-25T23:31:53.564Z,7.10
2022-12-25T23:35:55.508Z,7.10
2022-12-25T23:39:57.531Z,6.90
2022-12-25T23:43:59.494Z,7.10
2022-12-25T23:48:01.333Z,6.60
2022-12-25T23:52:03.650Z,7.00
2022-12-25T23:56:05.881Z,7.00
